createdAt,value
2018-07-09T00:01:31.252Z,101654.80
2018-07-09T00:03:59.923Z,101653.08
2018-07-09T00:06:28.912Z,101657.03
2018-07-09T00:08:57.357Z,101652.77
2018-07-09T00:11:27.544Z,101654.52
2018-07-09T00:13:56.577Z,101659.33
2018-07-09T00:16:25.431Z,101663.77
2018-07-09T00:18:53.911Z,101664.21
2018-07-09T00:21:22.791Z,101670.72
2018-07-09T00:23:51.223Z,101674.61
2018-07-09T00:26:20.263Z,101667.79
2018-07-09T00:28:48.976Z,101669.09
2018-07-09T00:31:17.457Z,101673.78
2018-07-09T00:33:45.935Z,101669.94
2018-07-09T00:36:15.053Z,101672.92
2018-07-09T00:38:45.007Z,101676.36
2018-07-09T00:41:14.820Z,101674.67
2018-07-09T00:43:44.081Z,101671.26
2018-07-09T00:46:12.972Z,101672.10
2018-07-09T00:48:41.460Z,101666.08
2018-07-09T00:51:09.886Z,101674.77
2018-07-09T00:53:38.329Z,101676.98
2018-07-09T00:56:07.407Z,101675.26
2018-07-09T00:58:36.701Z,101680.45
2018-07-09T01:01:05.554Z,101680.87
2018-07-09T01:03:34.496Z,101680.52
2018-07-09T01:06:03.863Z,101677.53
2018-07-09T01:08:33.204Z,101683.58
2018-07-09T01:11:12.784Z,101681.02
2018-07-09T01:13:47.351Z,101679.79
2018-07-09T01:16:16.204Z,101682.83
2018-07-09T01:18:44.656Z,101671.22
2018-07-09T01:21:14.396Z,101675.56
2018-07-09T01:23:43.990Z,101676.84
2018-07-09T01:26:13.532Z,101678.19
2018-07-09T01:28:43.002Z,101676.48
2018-07-09T01:31:12.051Z,101680.36
2018-07-09T01:33:42.348Z,101672.17
2018-07-09T01:36:11.348Z,101668.72
2018-07-09T01:38:39.740Z,101663.58
2018-07-09T01:41:08.149Z,101667.03
2018-07-09T01:43:37.522Z,101663.16
2018-07-09T01:46:06.673Z,101667.02
2018-07-09T01:48:35.989Z,101670.47
2018-07-09T01:51:04.542Z,101673.11
2018-07-09T01:53:33.281Z,101670.09
2018-07-09T01:56:01.713Z,101666.20
2018-07-09T01:58:30.135Z,101669.23
2018-07-09T02:00:58.823Z,101661.03
2018-07-09T02:03:27.532Z,101663.20
2018-07-09T02:05:56.040Z,101659.75
2018-07-09T02:08:25.393Z,101654.16
2018-07-09T02:10:53.832Z,101655.47
2018-07-09T02:13:22.256Z,101654.19
2018-07-09T02:15:50.663Z,101654.63
2018-07-09T02:18:19.139Z,101650.72
2018-07-09T02:20:48.384Z,101659.38
2018-07-09T02:23:16.879Z,101665.42
2018-07-09T02:25:45.576Z,101658.55
2018-07-09T02:28:13.947Z,101656.83
2018-07-09T02:30:43.003Z,101649.92
2018-07-09T02:33:11.653Z,101657.67
2018-07-09T02:35:40.100Z,101654.23
2018-07-09T02:38:09.483Z,101655.95
2018-07-09T02:40:37.917Z,101655.55
2018-07-09T02:43:06.358Z,101656.84
2018-07-09T02:45:35.047Z,101655.55
2018-07-09T02:48:04.149Z,101663.69
2018-07-09T02:50:32.640Z,101658.53
2018-07-09T02:53:01.117Z,101666.70
2018-07-09T02:55:29.673Z,101670.59
2018-07-09T02:57:58.948Z,101677.05
2018-07-09T03:00:29.409Z,101670.59
2018-07-09T03:02:58.593Z,101667.58
2018-07-09T03:05:27.008Z,101677.49
2018-07-09T03:07:55.505Z,101664.56
2018-07-09T03:10:24.946Z,101670.17
2018-07-09T03:12:53.473Z,101673.61
2018-07-09T03:15:21.883Z,101671.47
2018-07-09T03:17:51.614Z,101676.64
2018-07-09T03:20:20.155Z,101668.45
2018-07-09T03:22:48.565Z,101677.91
2018-07-09T03:25:16.992Z,101677.48
2018-07-09T03:27:45.452Z,101679.61
2018-07-09T03:30:14.080Z,101687.37
2018-07-09T03:32:43.096Z,101681.30
2018-07-09T03:35:12.507Z,101675.27
2018-07-09T03:37:40.919Z,101674.41
2018-07-09T03:40:09.299Z,101682.16
2018-07-09T03:42:37.793Z,101674.36
2018-07-09T03:45:06.329Z,101684.27
2018-07-09T03:47:35.864Z,101678.23
2018-07-09T03:50:04.429Z,101688.14
2018-07-09T03:52:33.242Z,101682.09
2018-07-09T03:55:02.253Z,101686.80
2018-07-09T03:57:30.723Z,101688.50
2018-07-09T03:59:59.162Z,101693.66
2018-07-09T04:02:27.572Z,101692.39
2018-07-09T04:04:55.949Z,101698.86
2018-07-09T04:07:24.312Z,101701.86
2018-07-09T04:09:53.010Z,101700.12
2018-07-09T04:12:21.571Z,101709.17
2018-07-09T04:14:49.964Z,101713.91
2018-07-09T04:17:18.504Z,101712.25
2018-07-09T04:19:46.940Z,101711.81
2018-07-09T04:22:15.940Z,101717.41
2018-07-09T04:24:44.361Z,101710.53
2018-07-09T04:27:12.755Z,101709.24
2018-07-09T04:29:41.331Z,101715.27
2018-07-09T04:32:09.842Z,101717.00
2018-07-09T04:34:38.928Z,101719.58
2018-07-09T04:37:07.351Z,101716.14
2018-07-09T04:39:35.896Z,101723.89
2018-07-09T04:42:04.327Z,101718.30
2018-07-09T04:44:33.775Z,101717.05
2018-07-09T04:47:02.268Z,101710.12
2018-07-09T04:49:31.332Z,101716.62
2018-07-09T04:51:59.697Z,101711.45
2018-07-09T04:54:28.177Z,101716.20
2018-07-09T04:56:57.175Z,101715.37
2018-07-09T04:59:25.673Z,101713.66
2018-07-09T05:01:54.044Z,101714.52
2018-07-09T05:04:22.492Z,101718.40
2018-07-09T05:06:51.856Z,101724.39
2018-07-09T05:09:20.284Z,101729.98
2018-07-09T05:11:48.692Z,101731.32
2018-07-09T05:14:17.103Z,101730.89
2018-07-09T05:16:45.527Z,101729.13
2018-07-09T05:19:13.978Z,101732.63
2018-07-09T05:21:42.408Z,101735.21
2018-07-09T05:24:10.904Z,101736.07
2018-07-09T05:26:39.381Z,101734.38
2018-07-09T05:29:07.780Z,101727.48
2018-07-09T05:31:36.463Z,101722.31
2018-07-09T05:34:04.834Z,101724.91
2018-07-09T05:36:33.261Z,101728.34
2018-07-09T05:39:01.796Z,101720.16
2018-07-09T05:41:30.242Z,101723.17
2018-07-09T05:43:58.968Z,101719.30
2018-07-09T05:46:27.440Z,101715.45
2018-07-09T05:48:55.950Z,101719.31
2018-07-09T05:51:24.379Z,101727.51
2018-07-09T05:53:52.772Z,101720.18
2018-07-09T05:56:21.212Z,101726.67
2018-07-09T05:58:50.119Z,101713.76
2018-07-09T06:01:18.497Z,101717.23
2018-07-09T06:03:46.996Z,101711.59
2018-07-09T06:06:15.460Z,101709.00
2018-07-09T06:08:43.888Z,101708.14
2018-07-09T06:11:12.341Z,101707.72
2018-07-09T06:13:40.735Z,101713.76
2018-07-09T06:16:09.880Z,101711.12
2018-07-09T06:18:38.422Z,101702.54
2018-07-09T06:21:07.049Z,101601.18
2018-07-09T06:23:35.540Z,101695.22
2018-07-09T06:26:04.032Z,101697.78
2018-07-09T06:28:32.487Z,101676.22
2018-07-09T06:31:00.904Z,101702.09
2018-07-09T06:33:29.445Z,101701.66
2018-07-09T06:35:57.896Z,101706.41
2018-07-09T06:38:26.256Z,101701.66
2018-07-09T06:40:54.704Z,101702.54
2018-07-09T06:43:23.139Z,101699.06
2018-07-09T06:45:51.610Z,101702.95
2018-07-09T06:48:20.153Z,101712.02
2018-07-09T06:50:48.539Z,101709.00
2018-07-09T06:53:17.034Z,101706.42
2018-07-09T06:55:45.432Z,101712.88
2018-07-09T06:58:13.877Z,101718.05
2018-07-09T07:00:44.267Z,101714.14
2018-07-09T07:03:12.793Z,101714.58
2018-07-09T07:05:41.399Z,101715.86
2018-07-09T07:08:09.816Z,101712.39
2018-07-09T07:10:38.278Z,101714.58
2018-07-09T07:13:07.472Z,101712.38
2018-07-09T07:15:36.003Z,101714.96
2018-07-09T07:18:04.478Z,101718.86
2018-07-09T07:20:34.054Z,101721.01
2018-07-09T07:23:03.156Z,101718.84
2018-07-09T07:25:31.605Z,101720.98
2018-07-09T07:28:00.129Z,101729.14
2018-07-09T07:30:28.618Z,101733.07
2018-07-09T07:32:57.044Z,101738.68
2018-07-09T07:35:25.519Z,101729.19
2018-07-09T07:37:53.974Z,101727.86
2018-07-09T07:40:22.520Z,101725.69
2018-07-09T07:42:50.964Z,101722.60
2018-07-09T07:45:19.424Z,101720.85
2018-07-09T07:47:47.911Z,101714.77
2018-07-09T07:50:16.434Z,101709.16
2018-07-09T07:52:44.841Z,101704.39
2018-07-09T07:55:13.268Z,101703.97
2018-07-09T07:57:41.795Z,101706.95
2018-07-09T08:00:11.291Z,101706.08
2018-07-09T08:02:40.322Z,101704.76
2018-07-09T08:05:08.853Z,101701.72
2018-07-09T08:07:37.428Z,101704.72
2018-07-09T08:10:06.836Z,101705.56
2018-07-09T08:15:04.054Z,101709.84
2018-07-09T08:17:32.690Z,101705.50
2018-07-09T08:20:01.167Z,101704.59
2018-07-09T08:22:29.582Z,101702.83
2018-07-09T08:24:58.111Z,101698.42
2018-07-09T08:27:26.495Z,101704.52
2018-07-09T08:29:54.937Z,101693.29
2018-07-09T08:32:23.625Z,101699.72
2018-07-09T08:34:52.250Z,101700.56
2018-07-09T08:37:20.745Z,101692.81
2018-07-09T08:39:49.177Z,101690.63
2018-07-09T08:42:17.639Z,101700.12
2018-07-09T08:44:46.787Z,101694.05
2018-07-09T08:47:15.262Z,101693.12
2018-07-09T08:49:43.933Z,101694.45
2018-07-09T08:52:12.399Z,101690.98
2018-07-09T08:54:40.846Z,101694.42
2018-07-09T08:57:09.372Z,101689.69
2018-07-09T08:59:37.845Z,101697.02
2018-07-09T09:02:06.268Z,101677.00
2018-07-09T09:04:34.703Z,101675.22
2018-07-09T09:07:03.142Z,101674.37
2018-07-09T09:09:31.613Z,101677.78
2018-07-09T09:12:00.100Z,101663.88
2018-07-09T09:14:28.545Z,101671.52
2018-07-09T09:16:57.002Z,101662.27
2018-07-09T09:19:25.408Z,101656.03
2018-07-09T09:21:53.861Z,101652.89
2018-07-09T09:24:22.282Z,101650.58
2018-07-09T09:26:51.152Z,101646.56
2018-07-09T09:29:19.731Z,101649.03
2018-07-09T09:31:48.268Z,101654.07
2018-07-09T09:34:16.773Z,101651.81
2018-07-09T09:36:46.819Z,101653.92
2018-07-09T09:39:15.364Z,101651.76
2018-07-09T09:41:44.476Z,101653.55
2018-07-09T09:44:12.918Z,101651.44
2018-07-09T09:46:41.452Z,101655.24
2018-07-09T09:49:09.907Z,101658.31
2018-07-09T09:51:38.336Z,101652.33
2018-07-09T09:54:07.001Z,101654.48
2018-07-09T09:56:35.377Z,101646.87
2018-07-09T09:59:03.930Z,101647.40
2018-07-09T10:01:32.424Z,101641.41
2018-07-09T10:04:00.860Z,101640.84
2018-07-09T10:06:29.305Z,101634.60
2018-07-09T10:08:58.057Z,101631.44
2018-07-09T10:11:26.512Z,101631.93
2018-07-09T10:13:54.960Z,101624.08
2018-07-09T10:16:23.414Z,101624.61
2018-07-09T10:18:51.991Z,101623.80
2018-07-09T10:21:20.405Z,101624.95
2018-07-09T10:23:48.828Z,101629.95
2018-07-09T10:26:17.328Z,101619.23
2018-07-09T10:28:46.057Z,101618.70
2018-07-09T10:31:14.470Z,101621.64
2018-07-09T10:33:42.975Z,101612.64
2018-07-09T10:36:11.381Z,101611.28
2018-07-09T10:38:39.849Z,101610.47
2018-07-09T10:41:08.353Z,101607.90
2018-07-09T10:43:36.821Z,101607.23
2018-07-09T10:46:05.302Z,101602.26
2018-07-09T10:48:33.769Z,101604.11
2018-07-09T10:51:02.230Z,101599.41
2018-07-09T10:53:30.652Z,101598.94
2018-07-09T10:55:59.137Z,101591.76
2018-07-09T10:58:27.580Z,101596.05
2018-07-09T11:00:56.030Z,101593.47
2018-07-09T11:03:24.583Z,101594.67
2018-07-09T11:05:53.009Z,101593.73
2018-07-09T11:08:21.494Z,101599.33
2018-07-09T11:10:49.921Z,101597.00
2018-07-09T11:13:18.432Z,101596.25
2018-07-09T11:15:46.952Z,101593.31
2018-07-09T11:18:15.474Z,101599.27
2018-07-09T11:20:43.964Z,101593.13
2018-07-09T11:23:12.478Z,101597.08
2018-07-09T11:25:40.929Z,101595.84
2018-07-09T11:28:09.412Z,101592.28
2018-07-09T11:30:38.452Z,101593.88
2018-07-09T11:33:06.889Z,101589.91
2018-07-09T11:35:35.316Z,101582.83
2018-07-09T11:38:03.764Z,101582.67
2018-07-09T11:40:32.175Z,101581.30
2018-07-09T11:43:00.645Z,101572.84
2018-07-09T11:45:29.096Z,101570.33
2018-07-09T11:47:57.605Z,101567.97
2018-07-09T11:50:26.072Z,101569.34
2018-07-09T11:52:54.639Z,101566.13
2018-07-09T11:55:23.056Z,101572.94
2018-07-09T11:57:52.094Z,101573.59
2018-07-09T12:00:20.512Z,101572.41
2018-07-09T12:02:49.351Z,101571.47
2018-07-09T12:05:17.809Z,101569.61
2018-07-09T12:07:46.309Z,101562.66
2018-07-09T12:10:14.855Z,101561.80
2018-07-09T12:12:43.276Z,101558.31
2018-07-09T12:15:11.764Z,101559.53
2018-07-09T12:17:40.396Z,101557.67
2018-07-09T12:20:08.978Z,101557.50
2018-07-09T12:22:37.373Z,101549.52
2018-07-09T12:25:06.345Z,101543.15
2018-07-09T12:27:34.776Z,101539.36
2018-07-09T12:30:03.295Z,101538.70
2018-07-09T12:32:31.698Z,101545.23
2018-07-09T12:35:00.121Z,101531.05
2018-07-09T12:37:29.250Z,101531.98
2018-07-09T12:39:57.905Z,101539.28
2018-07-09T12:42:27.301Z,101531.78
2018-07-09T12:44:55.740Z,101531.41
2018-07-09T12:47:24.179Z,101524.12
2018-07-09T12:49:53.423Z,101540.31
2018-07-09T12:52:21.865Z,101544.64
2018-07-09T12:54:50.349Z,101543.16
2018-07-09T12:57:18.875Z,101537.61
2018-07-09T12:59:47.306Z,101545.36
2018-07-09T13:02:16.188Z,101548.61
2018-07-09T13:04:44.837Z,101542.75
2018-07-09T13:07:14.938Z,101539.06
2018-07-09T13:09:43.345Z,101537.34
2018-07-09T13:12:11.836Z,101533.64
2018-07-09T13:14:40.292Z,101531.98
2018-07-09T13:17:08.742Z,101523.88
2018-07-09T13:19:37.157Z,101524.14
2018-07-09T13:22:05.812Z,101528.83
2018-07-09T13:24:34.313Z,101530.91
2018-07-09T13:27:02.717Z,101526.80
2018-07-09T13:29:31.172Z,101526.72
2018-07-09T13:32:00.269Z,101528.56
2018-07-09T13:34:28.776Z,101525.89
2018-07-09T13:36:57.268Z,101526.66
2018-07-09T13:39:25.823Z,101517.83
2018-07-09T13:41:54.327Z,101526.97
2018-07-09T13:44:22.752Z,101524.67
2018-07-09T13:46:51.312Z,101518.59
2018-07-09T13:49:19.745Z,101517.14
2018-07-09T13:51:48.216Z,101518.58
2018-07-09T13:54:16.628Z,101508.92
2018-07-09T13:56:45.978Z,101506.23
2018-07-09T13:59:15.587Z,101504.06
2018-07-09T14:01:44.076Z,101500.59
2018-07-09T14:04:12.564Z,101497.11
2018-07-09T14:06:41.056Z,101493.19
2018-07-09T14:09:09.920Z,101491.95
2018-07-09T14:11:38.435Z,101488.08
2018-07-09T14:14:07.361Z,101479.37
2018-07-09T14:16:35.801Z,101475.84
2018-07-09T14:19:15.414Z,101472.61
2018-07-09T14:21:43.810Z,101475.27
2018-07-09T14:24:12.226Z,101479.98
2018-07-09T14:26:40.635Z,101467.59
2018-07-09T14:29:09.057Z,101478.33
2018-07-09T14:31:37.457Z,101460.61
2018-07-09T14:34:06.071Z,101457.48
2018-07-09T14:36:34.506Z,101464.23
2018-07-09T14:39:03.027Z,101470.14
2018-07-09T14:41:32.412Z,101459.22
2018-07-09T14:44:00.890Z,101465.11
2018-07-09T14:46:29.319Z,101457.02
2018-07-09T14:48:57.776Z,101445.42
2018-07-09T14:51:26.206Z,101441.05
2018-07-09T14:53:54.664Z,101435.82
2018-07-09T14:56:23.120Z,101436.61
2018-07-09T14:58:53.049Z,101438.42
2018-07-09T15:01:21.584Z,101436.27
2018-07-09T15:03:52.314Z,101441.95
2018-07-09T15:06:20.868Z,101439.57
2018-07-09T15:08:49.355Z,101438.00
2018-07-09T15:11:17.816Z,101436.35
2018-07-09T15:13:46.271Z,101440.81
2018-07-09T15:16:14.690Z,101434.73
2018-07-09T15:18:43.680Z,101421.36
2018-07-09T15:21:12.265Z,101421.41
2018-07-09T15:23:40.653Z,101421.72
2018-07-09T15:26:09.106Z,101420.46
2018-07-09T15:28:37.542Z,101415.41
2018-07-09T15:31:06.053Z,101418.17
2018-07-09T15:33:34.509Z,101414.75
2018-07-09T15:36:03.012Z,101420.88
2018-07-09T15:38:31.371Z,101427.46
2018-07-09T15:41:00.110Z,101417.61
2018-07-09T15:43:41.418Z,101416.41
2018-07-09T15:46:11.212Z,101410.78
2018-07-09T15:48:40.134Z,101407.55
2018-07-09T15:51:09.020Z,101402.41
2018-07-09T15:53:37.747Z,101399.80
2018-07-09T15:56:06.473Z,101398.61
2018-07-09T15:58:36.601Z,101400.41
2018-07-09T16:01:05.548Z,101395.77
2018-07-09T16:03:34.179Z,101400.59
2018-07-09T16:06:02.636Z,101393.70
2018-07-09T16:08:31.049Z,101395.56
2018-07-09T16:10:59.601Z,101390.07
2018-07-09T16:13:28.065Z,101394.44
2018-07-09T16:15:56.468Z,101396.70
2018-07-09T16:18:24.938Z,101393.22
2018-07-09T16:20:53.712Z,101391.12
2018-07-09T16:23:22.104Z,101392.52
2018-07-09T16:25:50.649Z,101393.06
2018-07-09T16:28:19.206Z,101391.48
2018-07-09T16:30:47.730Z,101395.27
2018-07-09T16:33:16.312Z,101385.36
2018-07-09T16:35:44.751Z,101389.27
2018-07-09T16:38:13.163Z,101389.95
2018-07-09T16:40:41.614Z,101385.41
2018-07-09T16:43:10.381Z,101391.33
2018-07-09T16:45:38.800Z,101385.34
2018-07-09T16:48:07.286Z,101376.56
2018-07-09T16:50:35.740Z,101379.99
2018-07-09T16:53:04.187Z,101370.90
2018-07-09T16:55:32.617Z,101366.98
2018-07-09T16:58:01.033Z,101369.59
2018-07-09T17:00:29.512Z,101367.64
2018-07-09T17:02:59.151Z,101365.89
2018-07-09T17:05:27.594Z,101365.03
2018-07-09T17:07:56.215Z,101363.32
2018-07-09T17:10:24.652Z,101361.56
2018-07-09T17:12:53.629Z,101352.97
2018-07-09T17:15:22.180Z,101356.39
2018-07-09T17:17:50.673Z,101354.81
2018-07-09T17:20:19.115Z,101350.14
2018-07-09T17:22:48.240Z,101350.05
2018-07-09T17:25:16.896Z,101343.84
2018-07-09T17:27:45.340Z,101347.11
2018-07-09T17:30:13.754Z,101341.89
2018-07-09T17:32:42.212Z,101342.79
2018-07-09T17:35:10.593Z,101338.87
2018-07-09T17:37:39.111Z,101335.37
2018-07-09T17:40:07.841Z,101338.06
2018-07-09T17:42:36.367Z,101341.09
2018-07-09T17:45:04.975Z,101335.20
2018-07-09T17:47:33.435Z,101333.09
2018-07-09T17:50:01.918Z,101336.73
2018-07-09T17:52:30.309Z,101330.40
2018-07-09T17:54:58.742Z,101333.55
2018-07-09T17:57:27.237Z,101329.31
2018-07-09T17:59:55.734Z,101330.17
2018-07-09T18:02:24.217Z,101331.16
2018-07-09T18:04:52.669Z,101339.39
2018-07-09T18:07:22.824Z,101332.97
2018-07-09T18:09:51.313Z,101339.78
2018-07-09T18:12:19.740Z,101341.98
2018-07-09T18:14:48.171Z,101338.98
2018-07-09T18:17:16.972Z,101331.65
2018-07-09T18:19:45.492Z,101338.30
2018-07-09T18:22:13.922Z,101334.55
2018-07-09T18:24:42.332Z,101337.56
2018-07-09T18:27:10.823Z,101331.13
2018-07-09T18:29:39.265Z,101333.29
2018-07-09T18:32:07.769Z,101336.80
2018-07-09T18:34:36.756Z,101330.77
2018-07-09T18:37:05.313Z,101329.95
2018-07-09T18:39:33.704Z,101336.84
2018-07-09T18:42:03.922Z,101333.91
2018-07-09T18:44:32.395Z,101324.87
2018-07-09T18:47:02.384Z,101328.73
2018-07-09T18:49:31.638Z,101327.52
2018-07-09T18:52:00.133Z,101325.50
2018-07-09T18:54:28.806Z,101320.93
2018-07-09T18:56:58.196Z,101320.73
2018-07-09T18:59:26.671Z,101311.77
2018-07-09T19:01:55.512Z,101321.78
2018-07-09T19:04:24.515Z,101318.80
2018-07-09T19:06:58.938Z,101324.87
2018-07-09T19:09:28.217Z,101322.39
2018-07-09T19:11:57.572Z,101323.77
2018-07-09T19:14:45.564Z,101330.23
2018-07-09T19:18:09.085Z,101329.94
2018-07-09T19:21:18.734Z,101336.60
2018-07-09T19:23:46.293Z,101338.91
2018-07-09T19:26:13.544Z,101346.28
2018-07-09T19:28:40.892Z,101341.52
2018-07-09T19:31:08.079Z,101342.00
2018-07-09T19:33:35.316Z,101341.32
2018-07-09T19:36:03.523Z,101344.38
2018-07-09T19:38:30.736Z,101357.05
2018-07-09T19:40:58.055Z,101353.25
2018-07-09T19:43:25.265Z,101346.85
2018-07-09T19:45:52.616Z,101352.06
2018-07-09T19:48:19.808Z,101352.95
2018-07-09T19:50:47.559Z,101354.73
2018-07-09T19:53:16.781Z,101355.75
2018-07-09T19:55:44.173Z,101354.52
2018-07-09T19:58:11.495Z,101356.67
2018-07-09T20:00:40.466Z,101355.92
2018-07-09T20:03:08.270Z,101352.56
2018-07-09T20:05:36.142Z,101364.68
2018-07-09T20:08:04.088Z,101355.67
2018-07-09T20:10:36.668Z,101365.80
2018-07-09T20:15:11.160Z,101360.45
2018-07-09T20:17:42.605Z,101358.39
2018-07-09T20:20:09.927Z,101354.44
2018-07-09T20:22:37.300Z,101340.25
2018-07-09T20:25:04.975Z,101367.08
2018-07-09T20:27:32.371Z,101363.13
2018-07-09T20:30:00.733Z,101372.63
2018-07-09T20:32:28.177Z,101367.94
2018-07-09T20:34:55.440Z,101375.23
2018-07-09T20:37:22.852Z,101370.57
2018-07-09T20:39:50.156Z,101377.19
2018-07-09T20:42:17.565Z,101380.15
2018-07-09T20:44:44.810Z,101387.36
2018-07-09T20:47:12.209Z,101381.50
2018-07-09T20:49:39.565Z,101374.20
2018-07-09T20:52:06.789Z,101381.63
2018-07-09T20:54:33.991Z,101382.08
2018-07-09T20:57:01.337Z,101387.61
2018-07-09T20:59:28.563Z,101382.98
2018-07-09T21:01:55.802Z,101385.25
2018-07-09T21:04:28.941Z,101387.71
2018-07-09T21:06:58.312Z,101395.84
2018-07-09T21:09:26.135Z,101388.56
2018-07-09T21:11:53.658Z,101394.06
2018-07-09T21:14:20.860Z,101395.94
2018-07-09T21:16:48.061Z,101389.52
2018-07-09T21:19:15.288Z,101384.72
2018-07-09T21:21:42.502Z,101383.03
2018-07-09T21:24:09.709Z,101379.73
2018-07-09T21:26:36.954Z,101378.86
2018-07-09T21:29:04.220Z,101376.36
2018-07-09T21:31:31.476Z,101363.52
2018-07-09T21:33:58.679Z,101368.62
2018-07-09T21:36:25.933Z,101369.06
2018-07-09T21:38:53.148Z,101367.36
2018-07-09T21:41:20.361Z,101367.41
2018-07-09T21:43:47.572Z,101361.34
2018-07-09T21:46:14.812Z,101369.59
2018-07-09T21:48:42.161Z,101358.96
2018-07-09T21:51:09.443Z,101356.77
2018-07-09T21:53:37.020Z,101361.56
2018-07-09T21:56:04.208Z,101360.26
2018-07-09T21:58:31.404Z,101352.13
2018-07-09T22:00:58.661Z,101356.84
2018-07-09T22:03:25.842Z,101351.25
2018-07-09T22:05:53.050Z,101353.11
2018-07-09T22:08:20.253Z,101349.30
2018-07-09T22:10:47.452Z,101354.02
2018-07-09T22:13:14.681Z,101341.87
2018-07-09T22:15:43.182Z,101344.42
2018-07-09T22:18:10.691Z,101343.11
2018-07-09T22:20:38.162Z,101345.41
2018-07-09T22:23:05.474Z,101339.30
2018-07-09T22:25:32.673Z,101343.58
2018-07-09T22:28:00.032Z,101337.97
2018-07-09T22:30:31.780Z,101333.81
2018-07-09T22:33:00.568Z,101339.55
2018-07-09T22:35:29.856Z,101338.77
2018-07-09T22:37:58.383Z,101338.38
2018-07-09T22:40:26.866Z,101343.06
2018-07-09T22:42:55.902Z,101339.13
2018-07-09T22:45:24.973Z,101334.48
2018-07-09T22:47:53.472Z,101344.02
2018-07-09T22:50:23.921Z,101346.64
2018-07-09T22:52:52.460Z,101341.54
2018-07-09T22:55:32.269Z,101328.70
2018-07-09T22:58:01.988Z,101334.72
2018-07-09T23:00:30.556Z,101336.44
2018-07-09T23:03:13.257Z,101332.54
2018-07-09T23:05:41.785Z,101327.80
2018-07-09T23:08:11.340Z,101337.27
2018-07-09T23:11:51.437Z,101328.68
2018-07-09T23:14:59.651Z,101325.59
2018-07-09T23:17:39.359Z,101321.73
2018-07-09T23:22:23.567Z,101325.19
2018-07-09T23:24:50.921Z,101326.59
2018-07-09T23:27:18.123Z,101322.25
2018-07-09T23:29:45.361Z,101326.58
2018-07-09T23:32:13.434Z,101318.80
2018-07-09T23:34:40.649Z,101313.55
2018-07-09T23:37:07.880Z,101316.64
2018-07-09T23:39:35.135Z,101309.73
2018-07-09T23:42:03.047Z,101311.47
2018-07-09T23:44:30.152Z,101313.22
2018-07-09T23:46:57.359Z,101314.06
2018-07-09T23:49:24.563Z,101315.30
2018-07-09T23:51:51.825Z,101305.11
2018-07-09T23:54:19.017Z,101301.14
2018-07-09T23:57:10.643Z,101304.55
2018-07-09T23:59:51.105Z,101312.22
